Time;durP1;ratioP1;P1;durP2;ratioP2;P2;SDS_P1;SDS_P2;PMS_P1;PMS_P2;Temp;Humidity;BMP_temperature;BMP_pressure;BME280_temperature;BME280_humidity;BME280_pressure;Samples;Min_cycle;Max_cycle;Signal;HPM_P1;HPM_P2
2022/08/22 00:02:33;;;;;;;10.55;6.13;;;16.70;99.90;;;;;;5105903;27;20034;-79
2022/08/22 00:05:27;;;;;;;10.35;5.22;;;16.70;99.90;;;;;;5114212;27;20520;-80
2022/08/22 00:08:13;;;;;;;8.40;3.85;;;16.70;99.90;;;;;;5103036;27;20070;-80
2022/08/22 00:10:48;;;;;;;7.35;3.75;;;16.70;99.90;;;;;;5124524;27;20046;-80
2022/08/22 00:13:24;;;;;;;7.40;3.42;;;16.60;99.90;;;;;;5098068;27;20493;-80
2022/08/22 00:16:28;;;;;;;6.45;3.15;;;16.60;99.90;;;;;;5119943;27;20038;-79
2022/08/22 00:19:22;;;;;;;9.20;3.92;;;16.60;99.90;;;;;;5081320;27;20120;-80
2022/08/22 00:22:21;;;;;;;9.02;4.28;;;16.50;99.90;;;;;;5119152;27;20039;-80
2022/08/22 00:25:02;;;;;;;8.15;3.97;;;16.50;99.90;;;;;;5073818;27;20059;-79
2022/08/22 00:27:36;;;;;;;6.13;3.22;;;16.40;99.90;;;;;;5110005;27;20050;-80
2022/08/22 00:30:06;;;;;;;7.68;3.78;;;16.40;99.90;;;;;;5124722;27;20042;-80
2022/08/22 00:32:55;;;;;;;8.98;3.25;;;16.30;99.90;;;;;;5117596;27;20070;-79
2022/08/22 00:35:52;;;;;;;9.02;3.70;;;16.30;99.90;;;;;;5116919;27;20213;-80
2022/08/22 00:38:27;;;;;;;9.65;3.50;;;16.30;99.90;;;;;;5105277;27;20066;-80
2022/08/22 00:41:21;;;;;;;8.45;3.67;;;16.30;99.90;;;;;;5103873;27;20112;-79
2022/08/22 00:44:08;;;;;;;8.07;4.00;;;16.30;99.90;;;;;;5111428;27;20549;-79
2022/08/22 00:47:08;;;;;;;9.10;4.80;;;16.30;99.90;;;;;;5103546;27;20039;-79
2022/08/22 00:49:42;;;;;;;7.05;4.10;;;16.30;99.90;;;;;;5094300;27;20447;-80
2022/08/22 00:52:48;;;;;;;9.57;4.45;;;16.20;99.90;;;;;;5099667;27;20122;-79
2022/08/22 00:55:43;;;;;;;7.07;4.03;;;16.20;99.90;;;;;;5121361;27;20039;-79
2022/08/22 00:58:35;;;;;;;10.70;4.78;;;16.30;99.90;;;;;;5092351;27;20047;-80
2022/08/22 01:01:08;;;;;;;10.65;6.03;;;16.30;99.90;;;;;;5116747;27;20044;-79
2022/08/22 01:03:43;;;;;;;9.13;4.70;;;16.30;99.90;;;;;;5095576;27;20067;-79
2022/08/22 01:06:14;;;;;;;10.95;5.32;;;16.30;99.90;;;;;;5105148;27;20039;-79
2022/08/22 01:09:13;;;;;;;11.75;5.80;;;16.30;99.90;;;;;;5120623;27;20441;-79
2022/08/22 01:12:10;;;;;;;9.02;5.05;;;16.30;99.90;;;;;;5121514;27;20450;-79
2022/08/22 01:14:54;;;;;;;12.23;5.28;;;16.20;99.90;;;;;;5109750;27;20035;-79
2022/08/22 01:17:57;;;;;;;8.18;4.70;;;16.20;99.90;;;;;;5112763;27;20100;-82
2022/08/22 01:20:23;;;;;;;8.77;4.50;;;16.30;99.90;;;;;;5100478;27;20043;-82
2022/08/22 01:23:07;;;;;;;7.75;4.70;;;16.30;99.90;;;;;;5098628;27;20050;-82
2022/08/22 01:26:07;;;;;;;8.48;4.40;;;16.30;99.90;;;;;;5090935;27;20158;-82
2022/08/22 01:28:55;;;;;;;9.70;4.70;;;16.30;99.90;;;;;;5101330;27;20039;-82
2022/08/22 01:31:38;;;;;;;7.72;4.63;;;16.30;99.90;;;;;;5098696;27;20127;-83
2022/08/22 01:34:15;;;;;;;8.23;4.82;;;16.30;99.90;;;;;;5111047;27;20078;-83
2022/08/22 01:37:00;;;;;;;7.65;4.00;;;16.20;99.90;;;;;;5094281;27;20058;-83
2022/08/22 01:39:39;;;;;;;5.30;3.22;;;16.20;99.90;;;;;;5099197;27;20620;-83
2022/08/22 01:42:14;;;;;;;7.90;3.65;;;16.10;99.90;;;;;;5095726;28;20054;-84
2022/08/22 01:44:59;;;;;;;8.65;4.60;;;16.10;99.90;;;;;;5101489;27;20540;-83
2022/08/22 01:48:03;;;;;;;8.93;4.47;;;16.10;99.90;;;;;;5105160;27;20718;-83
2022/08/22 01:50:45;;;;;;;11.23;5.20;;;16.10;99.90;;;;;;5076969;27;20076;-82
2022/08/22 01:53:46;;;;;;;6.95;3.25;;;16.00;99.90;;;;;;5096664;27;20069;-83
2022/08/22 01:56:19;;;;;;;9.52;3.95;;;15.90;99.90;;;;;;5094009;27;20382;-83
2022/08/22 01:59:06;;;;;;;6.85;4.10;;;15.90;99.90;;;;;;5098107;27;20039;-83
2022/08/22 02:01:40;;;;;;;11.55;4.93;;;15.90;99.90;;;;;;5117698;27;20032;-83
2022/08/22 02:04:28;;;;;;;6.75;3.72;;;15.90;99.90;;;;;;5101242;27;20498;-83
2022/08/22 02:07:03;;;;;;;7.63;4.35;;;15.90;99.90;;;;;;5088881;27;20054;-83
2022/08/22 02:09:49;;;;;;;9.40;4.35;;;15.90;99.90;;;;;;5101746;27;20039;-80
2022/08/22 02:12:34;;;;;;;8.93;4.15;;;15.90;99.90;;;;;;5097160;27;20047;-80
2022/08/22 02:15:18;;;;;;;9.98;5.15;;;15.90;99.90;;;;;;5097014;27;20043;-80
2022/08/22 02:18:11;;;;;;;9.35;5.07;;;15.80;99.90;;;;;;5124830;27;20043;-80
2022/08/22 02:20:38;;;;;;;8.57;4.82;;;15.70;99.90;;;;;;5110585;27;20135;-80
2022/08/22 02:23:31;;;;;;;12.52;4.95;;;15.70;99.90;;;;;;5103152;27;20576;-80
2022/08/22 02:26:00;;;;;;;7.57;5.03;;;15.70;99.90;;;;;;5102835;27;20719;-80
2022/08/22 02:28:50;;;;;;;7.68;4.68;;;15.70;99.90;;;;;;5108878;27;20051;-80
2022/08/22 02:31:42;;;;;;;10.85;5.00;;;15.70;99.90;;;;;;5091382;27;20051;-80
2022/08/22 02:34:27;;;;;;;9.57;4.85;;;15.60;99.90;;;;;;5093352;27;20043;-80
2022/08/22 02:37:03;;;;;;;7.43;4.70;;;15.60;99.90;;;;;;5120940;27;20120;-80
2022/08/22 02:40:08;;;;;;;11.82;5.35;;;15.70;99.90;;;;;;5111712;27;20449;-80
2022/08/22 02:42:39;;;;;;;8.68;5.32;;;15.60;99.90;;;;;;5041910;28;20041;-80
2022/08/22 02:45:11;;;;;;;10.68;5.63;;;15.70;99.90;;;;;;5084849;28;20055;-80
2022/08/22 02:47:58;;;;;;;7.45;4.60;;;15.70;99.90;;;;;;5102466;27;20130;-80
2022/08/22 02:50:49;;;;;;;11.38;5.07;;;15.60;99.90;;;;;;5100346;28;20566;-80
2022/08/22 02:53:22;;;;;;;7.60;5.00;;;15.70;99.90;;;;;;5100001;27;20050;-80
2022/08/22 02:56:05;;;;;;;7.32;4.53;;;15.60;99.90;;;;;;5097588;28;20071;-80
2022/08/22 02:58:55;;;;;;;9.20;5.22;;;15.70;99.90;;;;;;5100170;27;20050;-80
2022/08/22 03:01:28;;;;;;;8.63;4.70;;;15.70;99.90;;;;;;5099856;28;20036;-80
2022/08/22 03:04:16;;;;;;;9.27;5.10;;;15.70;99.90;;;;;;5100054;27;20074;-80
2022/08/22 03:07:03;;;;;;;11.32;5.30;;;15.70;99.90;;;;;;5115870;27;20047;-80
2022/08/22 03:09:40;;;;;;;10.63;4.63;;;15.70;99.90;;;;;;5116595;27;20031;-80
2022/08/22 03:12:40;;;;;;;6.95;4.47;;;15.70;99.90;;;;;;5098663;27;20039;-80
2022/08/22 03:15:38;;;;;;;8.23;5.22;;;15.70;99.90;;;;;;5102869;27;20066;-80
2022/08/22 03:18:31;;;;;;;9.90;5.10;;;15.70;99.90;;;;;;5098900;28;20039;-80
2022/08/22 03:21:54;;;;;;;7.70;4.40;;;15.60;99.90;;;;;;5115432;27;20126;-80
2022/08/22 03:24:32;;;;;;;6.97;4.72;;;15.60;99.90;;;;;;5022499;28;20040;-80
2022/08/22 03:27:12;;;;;;;8.48;4.68;;;15.60;99.90;;;;;;5022216;28;20045;-80
2022/08/22 03:30:04;;;;;;;;;;;15.60;99.90;;;;;;5072897;28;20055;-80
2022/08/22 03:32:53;;;;;;;8.32;4.85;;;15.60;99.90;;;;;;5070112;28;19937;-80
2022/08/22 03:35:52;;;;;;;10.27;5.60;;;15.60;99.90;;;;;;5107109;28;20047;-80
2022/08/22 03:38:50;;;;;;;7.72;5.13;;;15.70;99.90;;;;;;5112620;28;20051;-79
2022/08/22 03:41:34;;;;;;;7.78;4.65;;;15.70;99.90;;;;;;5115648;28;20047;-80
2022/08/22 03:44:12;;;;;;;9.27;5.10;;;15.60;99.90;;;;;;5097063;28;20044;-80
2022/08/22 03:47:13;;;;;;;11.10;5.70;;;15.60;99.90;;;;;;5103717;28;20050;-80
2022/08/22 03:50:00;;;;;;;8.20;4.88;;;15.70;99.90;;;;;;5117036;28;20040;-80
2022/08/22 03:53:06;;;;;;;8.73;5.68;;;15.70;99.90;;;;;;5097665;28;20047;-80
2022/08/22 03:56:08;;;;;;;7.53;4.47;;;15.70;99.90;;;;;;5109380;28;20176;-80
2022/08/22 03:58:46;;;;;;;8.88;5.00;;;15.70;99.90;;;;;;5098559;27;20035;-80
2022/08/22 04:01:49;;;;;;;8.35;5.13;;;15.60;99.90;;;;;;5119070;27;20039;-80
2022/08/22 04:04:52;;;;;;;8.75;5.65;;;15.70;99.90;;;;;;5104423;27;20039;-80
2022/08/22 04:07:46;;;;;;;8.00;4.57;;;15.60;99.90;;;;;;5101404;28;20043;-80
2022/08/22 04:10:30;;;;;;;7.15;5.03;;;15.60;99.90;;;;;;5102091;27;20043;-80
2022/08/22 04:13:22;;;;;;;8.70;4.63;;;15.60;99.90;;;;;;5105073;27;20058;-80
2022/08/22 04:16:18;;;;;;;9.45;5.22;;;15.50;99.90;;;;;;5096154;27;20047;-81
2022/08/22 04:19:07;;;;;;;8.18;5.10;;;15.50;99.90;;;;;;5100749;27;20490;-80
2022/08/22 04:21:51;;;;;;;8.93;5.25;;;15.40;99.90;;;;;;5111015;27;20036;-80
2022/08/22 04:24:39;;;;;;;7.28;4.60;;;15.40;99.90;;;;;;5093947;27;20079;-80
2022/08/22 04:27:25;;;;;;;8.73;4.70;;;15.40;99.90;;;;;;5099166;27;20067;-80
2022/08/22 04:30:03;;;;;;;8.07;4.60;;;15.40;99.90;;;;;;5100460;27;20124;-80
2022/08/22 04:32:57;;;;;;;9.02;4.75;;;15.40;99.90;;;;;;5103602;27;20044;-80
2022/08/22 04:35:44;;;;;;;10.90;5.43;;;15.30;99.90;;;;;;5100244;28;20039;-80
2022/08/22 04:38:20;;;;;;;9.23;5.97;;;15.40;99.90;;;;;;5094013;27;20055;-80
2022/08/22 04:41:08;;;;;;;8.30;4.53;;;15.30;99.90;;;;;;5113643;27;20121;-79
2022/08/22 04:43:46;;;;;;;7.72;4.90;;;15.30;99.90;;;;;;5087515;28;20154;-80
2022/08/22 04:46:12;;;;;;;11.77;5.13;;;15.30;99.90;;;;;;5099593;28;20039;-79
2022/08/22 04:48:51;;;;;;;8.70;5.18;;;15.30;99.90;;;;;;5068574;27;20044;-79
2022/08/22 04:51:58;;;;;;;7.38;4.60;;;15.30;99.90;;;;;;5064844;28;20036;-79
2022/08/22 04:54:30;;;;;;;7.65;4.82;;;15.30;99.90;;;;;;5063514;28;20466;-79
2022/08/22 04:57:18;;;;;;;8.10;4.93;;;15.30;99.90;;;;;;5070204;28;20105;-80
2022/08/22 04:59:44;;;;;;;9.10;4.55;;;15.30;99.90;;;;;;5064548;28;20494;-80
2022/08/22 05:02:18;;;;;;;11.35;5.78;;;15.30;99.90;;;;;;5077107;28;20653;-79
2022/08/22 05:04:57;;;;;;;12.25;6.35;;;15.30;99.90;;;;;;5058809;28;20050;-79
2022/08/22 05:07:35;;;;;;;14.80;7.87;;;15.30;99.90;;;;;;5082385;28;20043;-79
2022/08/22 05:10:16;;;;;;;11.85;6.50;;;15.40;99.90;;;;;;5061652;28;20141;-79
2022/08/22 05:12:52;;;;;;;11.18;5.50;;;15.30;99.90;;;;;;5067113;28;20059;-80
2022/08/22 05:15:23;;;;;;;14.85;7.57;;;15.40;99.90;;;;;;5084824;28;20036;-80
2022/08/22 05:17:52;;;;;;;12.00;6.68;;;15.40;99.90;;;;;;5068990;28;20039;-80
2022/08/22 05:20:21;;;;;;;13.05;7.10;;;15.50;99.90;;;;;;5068752;28;20063;-80
2022/08/22 05:22:53;;;;;;;11.32;7.10;;;15.50;99.90;;;;;;5060684;28;20046;-80
2022/08/22 05:25:24;;;;;;;13.02;7.70;;;15.60;99.90;;;;;;5068651;28;20050;-81
2022/08/22 05:28:00;;;;;;;12.93;6.60;;;15.60;99.90;;;;;;5063997;28;20076;-80
2022/08/22 05:30:30;;;;;;;11.68;6.90;;;15.70;99.90;;;;;;5062812;27;20065;-81
2022/08/22 05:33:12;;;;;;;10.52;6.25;;;15.70;99.90;;;;;;5070283;28;20086;-80
2022/08/22 05:35:50;;;;;;;11.80;7.20;;;15.70;99.90;;;;;;5064018;28;20097;-80
2022/08/22 05:38:22;;;;;;;12.80;7.30;;;15.70;99.90;;;;;;5084073;28;20043;-81
2022/08/22 05:41:04;;;;;;;12.68;6.75;;;15.70;99.90;;;;;;5062541;28;20047;-81
2022/08/22 05:43:38;;;;;;;10.95;6.85;;;15.70;99.90;;;;;;5066423;28;20044;-81
2022/08/22 05:46:11;;;;;;;11.43;6.95;;;15.70;99.90;;;;;;5068115;28;20494;-80
2022/08/22 05:48:46;;;;;;;12.02;7.43;;;15.80;99.90;;;;;;5082336;28;20524;-80
2022/08/22 05:51:23;;;;;;;10.57;6.38;;;15.80;99.90;;;;;;5074965;28;20048;-80
2022/08/22 05:53:58;;;;;;;11.90;6.40;;;15.80;99.90;;;;;;5063329;28;20036;-80
2022/08/22 05:56:56;;;;;;;12.18;6.40;;;15.80;99.90;;;;;;5061844;28;20092;-80
2022/08/22 05:59:39;;;;;;;10.48;6.53;;;15.90;99.90;;;;;;5079873;28;20492;-81
2022/08/22 06:02:24;;;;;;;12.77;6.80;;;15.90;99.90;;;;;;5066525;28;20108;-81
2022/08/22 06:04:57;;;;;;;12.23;7.53;;;16.00;99.90;;;;;;5053696;28;20051;-80
2022/08/22 06:07:33;;;;;;;13.05;6.75;;;16.00;99.90;;;;;;5060357;28;20054;-81
2022/08/22 06:10:38;;;;;;;12.13;6.85;;;16.00;99.90;;;;;;5063957;28;20557;-81
2022/08/22 06:13:31;;;;;;;12.82;7.05;;;16.10;99.90;;;;;;5064928;28;20048;-81
2022/08/22 06:16:45;;;;;;;12.25;7.05;;;16.10;99.90;;;;;;5063907;28;20051;-80
2022/08/22 06:19:16;;;;;;;12.73;7.22;;;16.10;99.90;;;;;;4979892;28;20045;-80
2022/08/22 06:21:47;;;;;;;13.88;6.93;;;16.10;99.90;;;;;;4987413;28;20054;-82
2022/08/22 06:24:22;;;;;;;13.93;6.70;;;16.20;99.90;;;;;;5030009;28;20062;-80
2022/08/22 06:26:51;;;;;;;11.05;6.75;;;16.20;99.90;;;;;;5057411;28;20055;-81
2022/08/22 06:29:32;;;;;;;14.68;6.72;;;16.20;99.90;;;;;;5060287;28;20510;-80
2022/08/22 06:32:02;;;;;;;13.52;6.57;;;16.20;99.90;;;;;;5071332;28;20028;-81
2022/08/22 06:34:41;;;;;;;11.98;6.85;;;16.30;99.90;;;;;;5068906;28;20130;-80
2022/08/22 06:37:11;;;;;;;12.85;6.50;;;16.30;99.90;;;;;;5060019;28;20506;-80
2022/08/22 06:39:43;;;;;;;16.23;7.07;;;16.40;99.90;;;;;;5098841;27;20055;-80
2022/08/22 06:42:24;;;;;;;10.82;6.60;;;16.40;99.90;;;;;;5077106;27;20779;-81
2022/08/22 06:45:00;;;;;;;11.23;7.45;;;16.50;99.90;;;;;;5095195;28;20053;-81
2022/08/22 06:47:42;;;;;;;10.65;6.47;;;16.50;99.90;;;;;;5121196;27;20035;-81
2022/08/22 06:50:26;;;;;;;14.18;6.47;;;16.50;99.90;;;;;;5085009;27;20042;-80
2022/08/22 06:53:18;;;;;;;12.18;6.75;;;16.60;99.90;;;;;;5093088;28;20051;-81
2022/08/22 06:55:53;;;;;;;10.10;6.30;;;16.70;99.90;;;;;;5100829;28;20046;-81
2022/08/22 06:58:42;;;;;;;10.52;6.05;;;16.70;99.90;;;;;;5101938;27;20050;-82
2022/08/22 07:01:16;;;;;;;10.07;6.15;;;16.80;99.90;;;;;;5096660;28;20088;-81
2022/08/22 07:03:52;;;;;;;11.40;5.90;;;16.80;99.90;;;;;;5087818;27;20122;-81
2022/08/22 07:06:35;;;;;;;11.95;6.38;;;16.90;99.90;;;;;;5092793;28;20093;-81
2022/08/22 07:09:03;;;;;;;11.10;5.57;;;17.00;99.90;;;;;;5081228;27;20074;-81
2022/08/22 07:11:33;;;;;;;9.55;5.55;;;17.00;99.90;;;;;;5076643;28;20067;-81
2022/08/22 07:14:11;;;;;;;10.85;5.72;;;17.10;99.90;;;;;;5084184;27;20035;-81
2022/08/22 07:16:53;;;;;;;11.43;5.07;;;17.10;99.90;;;;;;5076376;28;20524;-81
2022/08/22 07:19:37;;;;;;;9.90;5.43;;;17.20;99.90;;;;;;5100894;28;20120;-81
2022/08/22 07:22:38;;;;;;;13.68;5.72;;;17.30;99.90;;;;;;5099295;28;20039;-82
2022/08/22 07:25:09;;;;;;;12.90;5.57;;;17.30;99.90;;;;;;5051905;28;20090;-83
2022/08/22 07:27:49;;;;;;;8.98;4.95;;;17.40;99.90;;;;;;5086453;28;20043;-81
2022/08/22 07:30:17;;;;;;;8.60;4.95;;;17.40;99.90;;;;;;5084136;28;20151;-81
2022/08/22 07:32:43;;;;;;;11.68;5.70;;;17.50;99.90;;;;;;5097352;28;20057;-82
2022/08/22 07:35:34;;;;;;;9.93;5.15;;;17.50;99.90;;;;;;5103176;27;20043;-81
2022/08/22 07:38:18;;;;;;;10.80;5.25;;;17.60;99.90;;;;;;5107279;27;20055;-82
2022/08/22 07:41:15;;;;;;;13.80;5.45;;;17.70;99.90;;;;;;5129324;27;20485;-81
2022/08/22 07:44:04;;;;;;;13.80;4.82;;;17.70;99.90;;;;;;5114600;27;20039;-81
2022/08/22 07:46:40;;;;;;;8.95;5.18;;;17.90;99.90;;;;;;5128868;27;20038;-81
2022/08/22 07:49:49;;;;;;;11.27;5.20;;;17.90;99.90;;;;;;5105424;27;20047;-82
2022/08/22 07:52:16;;;;;;;11.73;5.38;;;17.90;99.90;;;;;;5100067;27;20568;-82
2022/08/22 07:54:56;;;;;;;10.80;5.00;;;18.00;99.90;;;;;;5117287;27;20439;-81
2022/08/22 07:57:22;;;;;;;11.52;5.13;;;18.10;99.90;;;;;;5117743;27;20038;-81
2022/08/22 07:59:52;;;;;;;11.82;5.03;;;18.10;99.90;;;;;;5109810;27;20046;-82
2022/08/22 08:02:23;;;;;;;11.63;5.00;;;18.20;99.90;;;;;;5115416;27;20047;-81
2022/08/22 08:04:51;;;;;;;10.93;4.50;;;18.20;99.90;;;;;;5120680;27;20131;-81
2022/08/22 08:07:23;;;;;;;9.60;4.32;;;18.30;99.90;;;;;;5109200;27;20039;-81
2022/08/22 08:09:54;;;;;;;13.55;5.40;;;18.30;99.90;;;;;;5106373;27;20497;-82
2022/08/22 08:12:38;;;;;;;10.88;4.07;;;18.30;99.90;;;;;;5125491;27;20460;-83
2022/08/22 08:15:09;;;;;;;11.07;4.60;;;18.40;99.90;;;;;;5105666;27;20054;-82
2022/08/22 08:17:36;;;;;;;12.52;4.13;;;18.40;99.90;;;;;;5109224;27;20404;-82
2022/08/22 08:20:10;;;;;;;10.32;3.67;;;18.40;99.90;;;;;;5118579;27;20085;-81
2022/08/22 08:22:42;;;;;;;10.85;4.13;;;18.50;99.90;;;;;;5114597;27;20539;-81
2022/08/22 08:25:13;;;;;;;10.35;4.00;;;18.50;99.90;;;;;;5104777;27;20053;-81
2022/08/22 08:30:38;;;;;;;14.30;3.70;;;18.50;99.90;;;;;;5120856;27;20051;-81
2022/08/22 08:33:07;;;;;;;10.05;3.85;;;18.50;99.90;;;;;;5116578;27;20473;-81
2022/08/22 08:35:42;;;;;;;10.55;3.75;;;18.60;99.90;;;;;;5106437;27;20043;-83
2022/08/22 08:38:20;;;;;;;9.77;3.50;;;18.60;99.90;;;;;;5117545;27;20509;-83
2022/08/22 08:41:13;;;;;;;10.32;3.60;;;18.60;99.90;;;;;;5119108;27;20134;-83
2022/08/22 08:43:42;;;;;;;9.98;3.70;;;18.70;99.90;;;;;;5118701;27;20121;-83
2022/08/22 08:46:07;;;;;;;8.73;3.72;;;18.70;99.90;;;;;;5115111;27;20055;-82
2022/08/22 08:48:39;;;;;;;11.63;4.03;;;18.70;99.90;;;;;;5129919;27;20039;-83
2022/08/22 08:51:30;;;;;;;8.63;3.58;;;18.80;99.90;;;;;;5100329;27;20047;-83
2022/08/22 08:54:35;;;;;;;10.52;3.42;;;18.80;99.90;;;;;;5099978;27;20183;-83
2022/08/22 08:57:06;;;;;;;9.13;3.42;;;18.80;99.90;;;;;;5061301;28;20047;-83
2022/08/22 08:59:43;;;;;;;13.98;4.38;;;18.90;99.90;;;;;;5032277;28;20049;-84
2022/08/22 09:02:34;;;;;;;10.05;3.33;;;18.90;99.90;;;;;;5085854;27;21193;-84
2022/08/22 09:05:34;;;;;;;9.55;3.53;;;19.00;99.90;;;;;;5122093;27;20070;-83
2022/08/22 09:08:28;;;;;;;13.20;3.40;;;19.10;99.90;;;;;;5109147;27;20091;-83
2022/08/22 09:11:05;;;;;;;12.57;4.00;;;19.20;99.90;;;;;;5100500;27;20050;-83
2022/08/22 09:13:50;;;;;;;10.35;3.30;;;19.30;99.90;;;;;;5103305;27;20047;-83
2022/08/22 09:16:36;;;;;;;9.45;3.45;;;19.40;99.90;;;;;;5110324;27;20089;-82
2022/08/22 09:19:33;;;;;;;10.68;3.08;;;19.60;99.90;;;;;;5112188;27;20050;-83
2022/08/22 09:22:26;;;;;;;9.80;3.33;;;19.60;99.90;;;;;;5103246;27;20035;-87
2022/08/22 09:24:59;;;;;;;8.30;2.85;;;19.70;99.90;;;;;;5108154;27;20373;-84
2022/08/22 09:27:30;;;;;;;7.38;2.95;;;19.80;99.90;;;;;;5095928;27;20041;-81
2022/08/22 09:30:04;;;;;;;8.27;2.47;;;20.00;99.90;;;;;;5114571;27;21393;-83
2022/08/22 09:33:05;;;;;;;11.85;3.33;;;20.10;99.90;;;;;;5122003;27;20050;-81
2022/08/22 09:35:56;;;;;;;9.75;3.40;;;20.30;99.90;;;;;;5104342;27;20100;-83
2022/08/22 09:38:31;;;;;;;11.30;2.88;;;20.30;99.90;;;;;;5105534;27;20108;-83
2022/08/22 09:41:15;;;;;;;12.32;3.70;;;20.40;99.90;;;;;;5116387;27;20050;-81
2022/08/22 09:44:05;;;;;;;9.45;3.22;;;20.50;99.90;;;;;;5105095;27;20046;-82
2022/08/22 09:47:00;;;;;;;10.85;3.28;;;20.60;99.90;;;;;;5117628;27;20043;-83
2022/08/22 09:49:31;;;;;;;11.43;3.00;;;20.70;99.90;;;;;;5115882;27;20082;-81
2022/08/22 09:52:25;;;;;;;7.07;2.45;;;20.80;99.90;;;;;;5116327;27;20181;-81
2022/08/22 09:55:26;;;;;;;12.27;3.60;;;20.80;99.90;;;;;;5106855;27;20054;-81
2022/08/22 09:58:10;;;;;;;9.07;3.00;;;20.80;99.90;;;;;;5107524;27;20437;-80
2022/08/22 10:01:10;;;;;;;9.15;3.10;;;20.80;99.90;;;;;;5121331;27;20150;-82
2022/08/22 10:04:03;;;;;;;8.52;3.00;;;20.80;99.90;;;;;;5101452;27;20055;-80
2022/08/22 10:06:59;;;;;;;10.60;3.25;;;20.80;99.90;;;;;;5104498;27;20062;-81
2022/08/22 10:09:33;;;;;;;10.30;2.75;;;20.90;99.90;;;;;;5122566;27;20078;-80
2022/08/22 10:12:05;;;;;;;8.30;2.70;;;20.90;99.90;;;;;;5120945;27;20130;-82
2022/08/22 10:15:12;;;;;;;10.68;3.20;;;21.00;99.90;;;;;;5100088;27;20578;-80
2022/08/22 10:17:55;;;;;;;8.35;2.80;;;21.00;99.90;;;;;;5096023;27;20858;-82
2022/08/22 10:20:28;;;;;;;9.82;3.03;;;21.10;99.90;;;;;;5121962;27;20042;-82
2022/08/22 10:23:16;;;;;;;8.63;2.60;;;21.10;99.90;;;;;;5125736;27;20035;-81
2022/08/22 10:25:52;;;;;;;9.20;2.75;;;21.00;99.90;;;;;;5122027;27;20090;-82
2022/08/22 10:28:43;;;;;;;8.80;2.67;;;21.00;99.90;;;;;;5127712;27;20042;-81
2022/08/22 10:31:24;;;;;;;8.23;2.60;;;20.90;99.90;;;;;;5120636;27;20039;-81
2022/08/22 10:34:13;;;;;;;6.90;2.85;;;20.90;99.90;;;;;;5100474;27;20550;-82
2022/08/22 10:37:04;;;;;;;7.28;2.42;;;20.90;99.90;;;;;;5116335;27;20176;-81
2022/08/22 10:39:45;;;;;;;8.85;3.17;;;21.00;99.90;;;;;;5093144;27;20058;-81
2022/08/22 10:42:28;;;;;;;9.68;2.40;;;21.00;99.90;;;;;;5118026;27;20046;-82
2022/08/22 10:45:42;;;;;;;7.20;2.42;;;21.10;99.90;;;;;;5106824;27;20043;-84
2022/08/22 10:48:08;;;;;;;9.50;2.85;;;21.30;99.90;;;;;;5094509;27;20062;-82
2022/08/22 10:51:02;;;;;;;7.90;2.85;;;21.40;99.90;;;;;;5104425;27;20374;-83
2022/08/22 10:53:45;;;;;;;10.40;2.97;;;21.50;99.90;;;;;;5104112;27;20172;-82
2022/08/22 10:56:16;;;;;;;7.00;2.95;;;21.60;99.90;;;;;;5122646;27;20046;-81
2022/08/22 10:58:49;;;;;;;9.38;3.17;;;21.60;99.90;;;;;;5093496;27;20038;-82
2022/08/22 11:01:17;;;;;;;9.93;2.78;;;21.70;99.90;;;;;;5093923;27;20039;-82
2022/08/22 11:04:36;;;;;;;7.90;2.92;;;21.70;99.90;;;;;;5114729;27;20103;-82
2022/08/22 11:07:34;;;;;;;8.63;3.15;;;21.80;99.90;;;;;;5072761;27;20090;-83
2022/08/22 11:10:33;;;;;;;8.70;2.70;;;21.90;99.90;;;;;;5097290;27;20053;-82
2022/08/22 11:13:13;;;;;;;9.63;3.00;;;22.00;99.90;;;;;;5128791;27;20059;-84
2022/08/22 11:15:57;;;;;;;7.22;2.83;;;22.20;99.90;;;;;;5097854;28;20058;-79
2022/08/22 11:18:51;;;;;;;8.23;2.90;;;22.40;99.90;;;;;;5107995;27;20042;-79
2022/08/22 11:21:23;;;;;;;8.80;2.25;;;22.50;99.90;;;;;;5118064;27;20039;-81
2022/08/22 11:24:10;;;;;;;6.45;2.50;;;22.60;99.90;;;;;;5106955;27;20043;-83
2022/08/22 11:27:12;;;;;;;7.50;2.58;;;22.70;99.90;;;;;;5099642;27;20037;-81
2022/08/22 11:30:04;;;;;;;8.05;2.55;;;22.80;99.90;;;;;;5081200;27;20083;-81
2022/08/22 11:32:57;;;;;;;8.07;2.72;;;22.80;99.90;;;;;;5098662;27;20102;-80
2022/08/22 11:35:54;;;;;;;7.45;1.95;;;22.90;99.90;;;;;;5126283;27;20083;-81
2022/08/22 11:38:36;;;;;;;7.20;2.60;;;22.90;99.90;;;;;;5109510;27;20054;-80
2022/08/22 11:41:18;;;;;;;10.55;2.53;;;23.00;99.90;;;;;;5124393;27;20038;-81
2022/08/22 11:43:47;;;;;;;8.13;2.20;;;22.90;99.90;;;;;;5102667;27;20617;-80
2022/08/22 11:46:34;;;;;;;9.38;2.83;;;23.00;99.90;;;;;;5097822;27;20047;-82
2022/08/22 11:49:48;;;;;;;6.75;2.50;;;23.00;99.90;;;;;;5122503;27;20393;-81
2022/08/22 11:52:22;;;;;;;6.38;2.25;;;22.90;99.90;;;;;;5103103;27;20634;-80
2022/08/22 11:54:54;;;;;;;7.03;2.60;;;23.00;99.90;;;;;;5102371;27;20042;-79
2022/08/22 11:57:33;;;;;;;6.97;2.75;;;23.10;99.90;;;;;;5105486;27;20038;-80
2022/08/22 12:00:17;;;;;;;6.60;2.72;;;23.20;99.60;;;;;;5100938;27;20129;-81
2022/08/22 12:03:06;;;;;;;6.03;2.17;;;23.30;99.40;;;;;;5100643;27;20051;-80
2022/08/22 12:05:41;;;;;;;5.63;2.27;;;23.40;99.80;;;;;;5117871;27;20047;-80
2022/08/22 12:08:29;;;;;;;6.45;2.38;;;23.60;98.90;;;;;;5098053;27;20058;-78
2022/08/22 12:11:00;;;;;;;8.38;2.25;;;23.70;97.20;;;;;;5103866;27;20506;-81
2022/08/22 12:13:37;;;;;;;8.25;2.38;;;23.80;97.10;;;;;;5092317;28;20510;-81
2022/08/22 12:16:22;;;;;;;8.05;2.92;;;23.90;97.20;;;;;;5107266;27;21466;-86
2022/08/22 12:19:09;;;;;;;7.63;2.30;;;24.00;96.80;;;;;;5121270;27;20413;-81
2022/08/22 12:21:55;;;;;;;6.45;2.22;;;24.10;97.60;;;;;;5119128;27;20702;-83
2022/08/22 12:24:27;;;;;;;6.10;2.22;;;24.20;94.20;;;;;;5090736;27;20493;-85
2022/08/22 12:27:13;;;;;;;7.47;2.40;;;24.20;94.80;;;;;;5098313;27;20043;-84
2022/08/22 12:30:09;;;;;;;6.50;1.98;;;24.30;93.60;;;;;;5113006;27;20046;-83
2022/08/22 12:33:16;;;;;;;7.65;2.42;;;24.20;95.00;;;;;;5108762;27;20051;-83
2022/08/22 12:36:06;;;;;;;8.98;2.58;;;24.40;94.80;;;;;;5026459;28;20037;-84
2022/08/22 12:38:59;;;;;;;6.90;2.67;;;24.30;94.20;;;;;;5024847;28;20080;-83
2022/08/22 12:41:29;;;;;;;8.73;2.28;;;24.20;95.10;;;;;;5091428;27;20047;-83
2022/08/22 12:44:14;;;;;;;7.65;2.67;;;24.20;95.20;;;;;;5102459;27;20054;-85
2022/08/22 12:46:53;;;;;;;6.43;1.92;;;24.30;95.10;;;;;;5126242;27;20035;-86
2022/08/22 12:49:56;;;;;;;7.47;2.92;;;24.40;96.00;;;;;;5106122;27;20130;-82
2022/08/22 12:52:52;;;;;;;6.47;2.10;;;24.50;95.80;;;;;;5107067;27;20047;-82
2022/08/22 12:55:54;;;;;;;7.55;2.40;;;24.60;95.10;;;;;;5113616;27;20589;-82
2022/08/22 12:58:26;;;;;;;6.75;2.15;;;24.70;93.90;;;;;;5099753;27;20149;-82
2022/08/22 13:00:59;;;;;;;8.38;2.55;;;24.70;95.20;;;;;;5118486;27;20100;-84
2022/08/22 13:03:32;;;;;;;7.88;2.60;;;24.80;95.80;;;;;;5120900;27;20050;-81
2022/08/22 13:06:04;;;;;;;8.75;2.50;;;24.90;94.40;;;;;;5121598;27;20623;-80
2022/08/22 13:08:38;;;;;;;8.60;2.40;;;25.00;93.10;;;;;;5115593;27;20065;-81
2022/08/22 13:11:12;;;;;;;6.80;2.17;;;25.00;92.80;;;;;;5103913;27;20042;-81
2022/08/22 13:13:53;;;;;;;8.88;2.40;;;25.00;93.40;;;;;;5098812;27;20043;-82
2022/08/22 13:16:21;;;;;;;8.40;2.28;;;25.10;92.60;;;;;;5117585;27;20457;-81
2022/08/22 13:18:59;;;;;;;9.13;2.15;;;25.20;92.80;;;;;;5100298;27;20050;-80
2022/08/22 13:21:35;;;;;;;5.60;2.22;;;25.30;94.10;;;;;;5099395;27;21209;-81
2022/08/22 13:24:11;;;;;;;7.80;2.20;;;25.40;92.70;;;;;;5109165;27;20050;-81
2022/08/22 13:26:49;;;;;;;8.90;2.17;;;25.50;92.00;;;;;;5107939;27;20043;-81
2022/08/22 13:29:26;;;;;;;8.57;2.45;;;25.70;89.90;;;;;;5109429;27;20489;-82
2022/08/22 13:32:00;;;;;;;8.48;2.70;;;25.80;90.20;;;;;;5110360;27;20062;-81
2022/08/22 13:34:39;;;;;;;10.38;2.42;;;26.00;90.20;;;;;;5091774;27;20050;-81
2022/08/22 13:37:10;;;;;;;8.57;2.47;;;26.10;89.60;;;;;;5105070;27;20045;-82
2022/08/22 13:39:41;;;;;;;8.32;2.47;;;26.20;85.60;;;;;;5103607;27;20067;-81
2022/08/22 13:42:16;;;;;;;8.13;2.50;;;26.10;83.80;;;;;;5112655;27;20034;-82
2022/08/22 13:44:47;;;;;;;7.45;2.30;;;25.90;83.00;;;;;;5108217;27;20418;-80
2022/08/22 13:47:21;;;;;;;5.90;2.08;;;25.80;86.30;;;;;;5115103;27;20039;-80
2022/08/22 13:49:51;;;;;;;8.35;2.40;;;25.90;89.40;;;;;;5120087;27;20061;-82
2022/08/22 13:52:33;;;;;;;7.82;2.67;;;26.00;85.80;;;;;;5103836;27;20047;-80
2022/08/22 13:55:08;;;;;;;7.95;2.20;;;26.00;86.00;;;;;;5107470;27;20049;-79
2022/08/22 13:57:39;;;;;;;7.60;2.42;;;25.90;86.70;;;;;;5108492;27;20050;-77
2022/08/22 14:00:18;;;;;;;5.40;2.15;;;25.90;89.60;;;;;;5105604;27;20049;-77
2022/08/22 14:03:06;;;;;;;6.05;2.30;;;25.90;88.40;;;;;;5108848;27;20048;-78
2022/08/22 14:05:54;;;;;;;7.70;2.30;;;25.80;83.50;;;;;;5124292;27;20706;-76
2022/08/22 14:08:26;;;;;;;7.20;2.38;;;25.60;88.20;;;;;;5107568;27;20790;-78